Time;durP1;ratioP1;P1;durP2;ratioP2;P2;SDS_P1;SDS_P2;PMS_P1;PMS_P2;Temp;Humidity;BMP_temperature;BMP_pressure;BME280_temperature;BME280_humidity;BME280_pressure;Samples;Min_cycle;Max_cycle;Signal;HPM_P1;HPM_P2
2022/08/16 00:00:48;;;;;;;6.23;3.73;;;;;25.20;99325.00;;;;2077792;28;20460;-55
2022/08/16 00:01:49;;;;;;;4.27;3.93;;;;;25.20;99574.00;;;;2078059;28;20588;-55
2022/08/16 00:02:49;;;;;;;6.20;4.47;;;;;25.20;99556.00;;;;2069532;28;20213;-55
2022/08/16 00:03:50;;;;;;;5.93;3.80;;;;;25.10;99566.00;;;;2077990;28;20496;-55
2022/08/16 00:04:51;;;;;;;5.13;4.03;;;;;25.10;99560.00;;;;2078708;28;20223;-55
2022/08/16 00:05:51;;;;;;;4.63;4.10;;;;;25.20;99554.00;;;;2078786;28;20692;-55
2022/08/16 00:06:51;;;;;;;5.07;4.30;;;;;25.10;99570.00;;;;2078041;28;20717;-55
2022/08/16 00:07:52;;;;;;;4.17;3.87;;;;;25.10;99569.00;;;;2077152;28;20742;-55
2022/08/16 00:08:52;;;;;;;4.00;3.70;;;;;25.10;99593.00;;;;2078557;28;20690;-54
2022/08/16 00:09:52;;;;;;;4.10;3.80;;;;;25.10;99568.00;;;;2078150;28;20701;-54
2022/08/16 00:10:53;;;;;;;4.70;4.00;;;;;25.10;99567.00;;;;2078419;28;20205;-55
2022/08/16 00:11:53;;;;;;;4.50;4.10;;;;;25.10;99581.00;;;;2077707;28;20617;-55
2022/08/16 00:12:53;;;;;;;4.23;3.70;;;;;25.10;99577.00;;;;2078115;28;20671;-54
2022/08/16 00:13:54;;;;;;;4.10;3.80;;;;;25.10;99579.00;;;;2077743;28;20585;-55
2022/08/16 00:14:55;;;;;;;5.60;4.00;;;;;25.10;99572.00;;;;2079369;28;20206;-55
2022/08/16 00:15:55;;;;;;;3.70;3.40;;;;;25.10;99577.00;;;;2077887;28;20816;-55
2022/08/16 00:16:56;;;;;;;4.03;3.73;;;;;25.10;99568.00;;;;2086091;28;20448;-55
2022/08/16 00:17:56;;;;;;;4.30;3.90;;;;;25.10;99574.00;;;;2085632;28;20227;-55
2022/08/16 00:18:58;;;;;;;4.20;3.80;;;;;25.00;99573.00;;;;2084151;28;20736;-54
2022/08/16 00:19:58;;;;;;;6.15;4.50;;;;;25.00;99576.00;;;;2069198;28;20228;-54
2022/08/16 00:20:59;;;;;;;4.77;3.87;;;;;25.00;99581.00;;;;2069948;28;20210;-54
2022/08/16 00:21:59;;;;;;;4.17;3.87;;;;;25.00;99575.00;;;;2085842;28;20725;-54
2022/08/16 00:22:59;;;;;;;4.30;3.90;;;;;25.00;99579.00;;;;2086804;28;20746;-54
2022/08/16 00:24:00;;;;;;;4.13;3.73;;;;;25.00;99583.00;;;;2086660;28;20208;-54
2022/08/16 00:25:00;;;;;;;4.60;3.63;;;;;25.00;99573.00;;;;2086554;28;20294;-54
2022/08/16 00:26:01;;;;;;;4.40;4.00;;;;;25.00;99574.00;;;;2086520;28;20209;-54
2022/08/16 00:27:02;;;;;;;5.30;4.10;;;;;25.00;99608.00;;;;2086363;28;20220;-54
2022/08/16 00:28:03;;;;;;;4.70;4.20;;;;;25.00;99575.00;;;;2085795;28;20588;-55
2022/08/16 00:29:03;;;;;;;4.57;4.17;;;;;25.00;99579.00;;;;2086475;28;20518;-54
2022/08/16 00:30:06;;;;;;;4.47;4.07;;;;;25.00;99571.00;;;;2085548;28;20443;-54
2022/08/16 00:31:06;;;;;;;4.40;4.00;;;;;25.00;99629.00;;;;2070065;28;20210;-54
2022/08/16 00:32:06;;;;;;;5.00;4.00;;;;;25.00;99566.00;;;;2069789;28;20890;-54
2022/08/16 00:33:07;;;;;;;4.07;3.67;;;;;25.00;99576.00;;;;2085143;28;20712;-54
2022/08/16 00:34:07;;;;;;;4.40;4.00;;;;;25.00;99577.00;;;;2086071;28;20220;-54
2022/08/16 00:35:10;;;;;;;4.40;4.00;;;;;25.00;99568.00;;;;2080654;28;20229;-54
2022/08/16 00:36:11;;;;;;;4.30;4.00;;;;;25.00;99572.00;;;;2078497;28;20221;-54
2022/08/16 00:37:14;;;;;;;4.27;3.87;;;;;25.00;99437.00;;;;2078584;28;20453;-55
2022/08/16 00:38:14;;;;;;;4.80;4.10;;;;;25.00;99572.00;;;;2081482;28;20311;-56
2022/08/16 00:39:15;;;;;;;5.07;4.43;;;;;25.00;99573.00;;;;2086007;28;20459;-56
2022/08/16 00:40:22;;;;;;;5.20;3.80;;;;;25.00;99569.00;;;;2086223;28;20251;-56
2022/08/16 00:41:23;;;;;;;4.40;4.00;;;;;25.00;99579.00;;;;2077819;28;20475;-56
2022/08/16 00:42:28;;;;;;;6.80;4.50;;;;;25.00;99573.00;;;;2068514;28;20464;-56
2022/08/16 00:43:34;;;;;;;4.60;4.20;;;;;25.00;99572.00;;;;2078518;28;20697;-56
2022/08/16 00:44:34;;;;;;;4.20;3.80;;;;;25.00;99572.00;;;;2068433;28;20456;-56
2022/08/16 00:45:49;;;;;;;4.40;4.10;;;;;25.00;99572.00;;;;2077651;28;20530;-56
2022/08/16 00:46:56;;;;;;;4.55;4.13;;;;;25.00;99569.00;;;;2083295;28;20209;-56
2022/08/16 00:47:56;;;;;;;5.70;4.32;;;;;25.00;99580.00;;;;2085180;28;20209;-53
2022/08/16 00:48:57;;;;;;;4.40;4.00;;;;;25.00;99582.00;;;;2085565;28;20209;-54
2022/08/16 00:49:57;;;;;;;4.70;4.30;;;;;25.00;99571.00;;;;2086646;28;20220;-55
2022/08/16 00:50:59;;;;;;;4.93;4.53;;;;;25.00;99576.00;;;;2084466;28;20201;-54
2022/08/16 00:51:59;;;;;;;8.80;4.47;;;;;25.00;99577.00;;;;2085792;28;20239;-55
2022/08/16 00:52:59;;;;;;;5.77;4.13;;;;;25.10;99579.00;;;;2085499;28;20450;-54
2022/08/16 00:54:00;;;;;;;7.63;4.60;;;;;25.00;99572.00;;;;2086208;28;20682;-55
2022/08/16 00:55:00;;;;;;;4.80;4.40;;;;;25.00;99578.00;;;;2085694;28;20201;-55
2022/08/16 00:56:04;;;;;;;4.47;3.70;;;;;25.00;99575.00;;;;2085086;28;20223;-55
2022/08/16 00:57:04;;;;;;;4.43;4.03;;;;;25.00;99572.00;;;;2076612;28;20218;-55
2022/08/16 00:58:04;;;;;;;4.43;4.03;;;;;25.00;99581.00;;;;2068423;28;20847;-55
2022/08/16 00:59:06;;;;;;;5.20;4.80;;;;;25.00;99537.00;;;;2085757;28;20629;-55
2022/08/16 01:00:07;;;;;;;5.40;4.20;;;;;25.00;99575.00;;;;2077214;28;20216;-55
2022/08/16 01:01:08;;;;;;;4.70;4.30;;;;;25.00;99574.00;;;;2077500;28;22086;-55
2022/08/16 01:02:09;;;;;;;4.60;4.20;;;;;25.00;99582.00;;;;2085882;28;20509;-55
2022/08/16 01:03:11;;;;;;;5.37;4.87;;;;;25.00;99578.00;;;;2085712;28;20217;-55
2022/08/16 01:04:12;;;;;;;4.85;4.35;;;;;25.00;99546.00;;;;2085407;28;20479;-55
2022/08/16 01:05:13;;;;;;;4.83;4.43;;;;;25.00;99587.00;;;;2086014;28;20216;-54
2022/08/16 01:06:13;;;;;;;6.20;4.63;;;;;25.00;99575.00;;;;2085763;28;21020;-54
2022/08/16 01:07:13;;;;;;;5.27;4.77;;;;;25.00;99583.00;;;;2085512;28;20217;-55
2022/08/16 01:08:15;;;;;;;4.67;4.20;;;;;25.00;99587.00;;;;2085424;28;20216;-54
2022/08/16 01:09:16;;;;;;;4.93;4.53;;;;;25.00;99580.00;;;;2085819;28;20291;-55
2022/08/16 01:10:16;;;;;;;5.40;4.90;;;;;25.00;99586.00;;;;2085741;28;20455;-55
2022/08/16 01:11:16;;;;;;;4.90;4.50;;;;;25.00;99585.00;;;;2086397;28;20330;-55
2022/08/16 01:12:18;;;;;;;5.17;4.67;;;;;25.00;99577.00;;;;2086512;28;20221;-54
2022/08/16 01:13:23;;;;;;;5.70;4.70;;;;;25.00;99587.00;;;;2085910;28;20618;-55
2022/08/16 01:14:29;;;;;;;4.40;4.00;;;;;25.00;99584.00;;;;2085534;28;20446;-55
2022/08/16 01:15:29;;;;;;;4.40;4.07;;;;;25.00;99584.00;;;;2084819;28;20466;-55
2022/08/16 01:16:30;;;;;;;4.83;4.40;;;;;25.00;99542.00;;;;2085954;28;20451;-55
2022/08/16 01:17:30;;;;;;;6.30;4.17;;;;;25.00;99576.00;;;;2076842;28;20214;-54
2022/08/16 01:18:39;;;;;;;7.33;4.57;;;;;25.00;99584.00;;;;2077702;28;20565;-55
2022/08/16 01:19:49;;;;;;;4.88;4.47;;;;;25.00;99548.00;;;;2077387;28;20260;-55
2022/08/16 01:21:27;;;;;;;5.18;4.53;;;;;25.00;99591.00;;;;2079064;28;20237;-54
2022/08/16 01:22:35;;;;;;;5.53;4.27;;;;;25.00;99586.00;;;;2080599;28;20221;-55
2022/08/16 01:23:53;;;;;;;5.40;4.90;;;;;25.00;99591.00;;;;2075270;28;20487;-55
2022/08/16 01:24:56;;;;;;;5.43;4.57;;;;;25.00;99580.00;;;;2075735;28;20351;-55
2022/08/16 01:25:56;;;;;;;8.40;4.17;;;;;25.00;99571.00;;;;2071071;28;20218;-55
2022/08/16 01:27:00;;;;;;;5.80;4.50;;;;;25.00;99580.00;;;;2071126;28;20457;-55
2022/08/16 01:28:03;;;;;;;4.40;4.10;;;;;25.00;99568.00;;;;2070382;28;20297;-54
2022/08/16 01:29:05;;;;;;;4.75;4.35;;;;;25.00;99545.00;;;;2071464;28;20206;-55
2022/08/16 01:30:11;;;;;;;5.80;4.78;;;;;25.00;99576.00;;;;2071448;28;20198;-55
2022/08/16 01:31:11;;;;;;;4.97;4.50;;;;;25.00;99589.00;;;;2072323;28;20854;-55
2022/08/16 01:32:11;;;;;;;6.30;4.50;;;;;25.00;99579.00;;;;2070122;28;20214;-55
2022/08/16 01:33:12;;;;;;;4.73;4.33;;;;;25.00;99584.00;;;;2078899;28;20280;-55
2022/08/16 01:34:12;;;;;;;6.40;4.40;;;;;25.00;99583.00;;;;2087521;28;20228;-55
2022/08/16 01:35:24;;;;;;;4.93;4.53;;;;;25.00;99581.00;;;;2087786;28;20250;-55
2022/08/16 01:36:24;;;;;;;4.70;4.30;;;;;25.00;99577.00;;;;2078442;28;20213;-55
2022/08/16 01:37:24;;;;;;;4.63;4.20;;;;;25.00;99595.00;;;;2069980;28;20536;-54
2022/08/16 01:38:30;;;;;;;4.63;4.00;;;;;25.00;99585.00;;;;2087142;28;20227;-56
2022/08/16 01:39:30;;;;;;;4.85;4.28;;;;;25.00;99676.00;;;;2087738;28;20240;-55
2022/08/16 01:40:30;;;;;;;5.27;4.87;;;;;25.00;99584.00;;;;2087930;28;20680;-55
2022/08/16 01:41:31;;;;;;;4.47;4.03;;;;;25.00;99587.00;;;;2087911;28;20221;-54
2022/08/16 01:42:31;;;;;;;5.77;4.37;;;;;24.90;99585.00;;;;2087936;28;20209;-55
2022/08/16 01:43:32;;;;;;;4.30;4.00;;;;;24.90;99581.00;;;;2087028;28;20240;-55
2022/08/16 01:44:34;;;;;;;5.17;4.60;;;;;24.90;99582.00;;;;2086962;28;20681;-55
2022/08/16 01:45:34;;;;;;;5.17;4.37;;;;;24.90;99587.00;;;;2087223;28;20452;-54
2022/08/16 01:46:37;;;;;;;5.40;4.80;;;;;25.00;99580.00;;;;2086928;28;20886;-55
2022/08/16 01:47:38;;;;;;;4.87;4.50;;;;;24.90;99583.00;;;;2086855;28;20208;-55
2022/08/16 01:48:38;;;;;;;5.40;4.40;;;;;24.90;99544.00;;;;2078908;28;20456;-55
2022/08/16 01:49:40;;;;;;;5.37;4.50;;;;;24.90;99572.00;;;;2070485;28;20222;-55
2022/08/16 01:50:40;;;;;;;7.87;4.30;;;;;24.90;99577.00;;;;2086793;28;20205;-55
2022/08/16 01:51:42;;;;;;;5.87;4.70;;;;;24.90;99575.00;;;;2087847;28;20530;-55
2022/08/16 01:52:42;;;;;;;5.07;4.67;;;;;24.90;99575.00;;;;2087750;28;20240;-55
2022/08/16 01:53:43;;;;;;;5.37;4.23;;;;;24.90;99576.00;;;;2083665;28;20903;-55
2022/08/16 01:54:43;;;;;;;5.07;4.57;;;;;24.90;99581.00;;;;2070826;28;20289;-55
2022/08/16 01:55:44;;;;;;;6.67;4.30;;;;;24.90;99572.00;;;;2078621;28;20218;-55
2022/08/16 01:56:44;;;;;;;5.47;4.70;;;;;24.90;99575.00;;;;2079178;28;20221;-54
2022/08/16 01:57:44;;;;;;;5.70;5.13;;;;;24.90;99577.00;;;;2078112;28;20304;-55
2022/08/16 01:58:45;;;;;;;7.13;4.67;;;;;24.90;99583.00;;;;2079408;28;20752;-55
2022/08/16 01:59:45;;;;;;;5.60;4.30;;;;;24.90;99571.00;;;;2079395;28;20245;-55
2022/08/16 02:00:46;;;;;;;4.80;4.40;;;;;24.90;99564.00;;;;2079642;28;20213;-55
2022/08/16 02:01:47;;;;;;;5.77;4.43;;;;;24.90;99582.00;;;;2078886;28;20214;-55
2022/08/16 02:02:47;;;;;;;4.90;4.40;;;;;24.90;99568.00;;;;2078540;28;20225;-55
2022/08/16 02:03:48;;;;;;;5.60;4.70;;;;;24.90;99570.00;;;;2079606;28;20651;-54
2022/08/16 02:04:48;;;;;;;5.23;4.73;;;;;24.90;99573.00;;;;2079293;28;20217;-55
2022/08/16 02:05:49;;;;;;;5.03;4.30;;;;;24.90;99564.00;;;;2079652;28;20221;-55
2022/08/16 02:06:50;;;;;;;4.70;4.20;;;;;24.80;99561.00;;;;2079645;28;20217;-55
2022/08/16 02:07:50;;;;;;;5.00;4.50;;;;;24.90;99571.00;;;;2078559;28;20220;-54
2022/08/16 02:08:51;;;;;;;5.07;4.37;;;;;24.90;99570.00;;;;2079076;28;20447;-55
2022/08/16 02:09:52;;;;;;;4.80;4.40;;;;;24.90;99570.00;;;;2079375;28;20213;-55
2022/08/16 02:10:53;;;;;;;5.13;4.57;;;;;24.90;99567.00;;;;2079377;28;20210;-55
2022/08/16 02:11:56;;;;;;;5.10;4.60;;;;;24.90;99574.00;;;;2079514;28;20622;-55
2022/08/16 02:12:57;;;;;;;6.70;4.35;;;;;24.90;99575.00;;;;2079413;28;20213;-55
2022/08/16 02:13:57;;;;;;;5.70;5.20;;;;;24.90;99574.00;;;;2079453;28;20222;-54
2022/08/16 02:14:58;;;;;;;5.07;4.67;;;;;24.90;99573.00;;;;2079324;28;20215;-55
2022/08/16 02:15:58;;;;;;;5.10;4.63;;;;;24.90;99566.00;;;;2079487;28;20585;-55
2022/08/16 02:17:00;;;;;;;5.23;4.13;;;;;24.90;99571.00;;;;2079390;28;20225;-55
2022/08/16 02:18:01;;;;;;;5.07;4.67;;;;;24.90;99578.00;;;;2077828;28;20268;-56
2022/08/16 02:19:02;;;;;;;7.60;4.80;;;;;24.90;99602.00;;;;2078569;28;21251;-55
2022/08/16 02:20:03;;;;;;;5.70;5.17;;;;;24.90;99575.00;;;;2078704;28;20260;-55
2022/08/16 02:21:03;;;;;;;5.00;4.50;;;;;24.90;99576.00;;;;2076408;28;20457;-55
2022/08/16 02:22:04;;;;;;;6.23;4.30;;;;;24.90;99585.00;;;;2070608;28;20540;-55
2022/08/16 02:23:04;;;;;;;5.10;4.60;;;;;24.90;99587.00;;;;2062178;28;20297;-55
2022/08/16 02:24:05;;;;;;;4.47;4.03;;;;;25.00;99579.00;;;;2070045;28;20217;-55
2022/08/16 02:25:09;;;;;;;4.40;3.90;;;;;24.90;99581.00;;;;2078424;28;20237;-55
2022/08/16 02:26:09;;;;;;;5.13;4.63;;;;;24.90;99589.00;;;;2079189;28;20267;-55
2022/08/16 02:27:10;;;;;;;4.63;4.27;;;;;24.90;99581.00;;;;2079164;28;20460;-55
2022/08/16 02:28:10;;;;;;;6.70;4.53;;;;;24.90;99577.00;;;;2077786;28;20267;-55
2022/08/16 02:29:10;;;;;;;4.97;4.57;;;;;24.90;99574.00;;;;2078568;28;20206;-55
2022/08/16 02:30:16;;;;;;;5.37;4.30;;;;;24.90;99544.00;;;;2079309;28;20247;-55
2022/08/16 02:31:17;;;;;;;5.37;4.87;;;;;24.90;99588.00;;;;2083868;28;20217;-55
2022/08/16 02:32:17;;;;;;;4.80;4.40;;;;;24.90;99584.00;;;;2078730;28;20660;-55
2022/08/16 02:33:21;;;;;;;4.57;4.17;;;;;24.90;99587.00;;;;2085830;28;20275;-55
2022/08/16 02:34:21;;;;;;;7.45;4.55;;;;;24.90;99586.00;;;;2078340;28;20205;-55
2022/08/16 02:35:22;;;;;;;6.67;5.10;;;;;24.90;99584.00;;;;2078722;28;20225;-55
2022/08/16 02:36:22;;;;;;;4.80;4.40;;;;;24.90;99587.00;;;;2087537;28;20286;-55
2022/08/16 02:37:22;;;;;;;4.93;4.47;;;;;24.80;99587.00;;;;2086552;28;20294;-54
2022/08/16 02:38:23;;;;;;;4.50;4.10;;;;;24.90;99579.00;;;;2086808;28;20209;-55
2022/08/16 02:39:23;;;;;;;5.23;4.33;;;;;24.90;99582.00;;;;2086721;28;20205;-55
2022/08/16 02:40:24;;;;;;;6.63;4.43;;;;;24.90;99577.00;;;;2087366;28;20217;-55
2022/08/16 02:41:24;;;;;;;4.90;4.40;;;;;24.90;99575.00;;;;2086957;28;20592;-55
2022/08/16 02:42:24;;;;;;;7.03;4.70;;;;;24.90;99576.00;;;;2079159;28;20213;-55
2022/08/16 02:43:26;;;;;;;5.83;4.47;;;;;24.90;99576.00;;;;2079272;28;20205;-55
2022/08/16 02:44:27;;;;;;;8.85;4.45;;;;;24.90;99575.00;;;;2078533;28;20271;-55
2022/08/16 02:45:27;;;;;;;4.27;3.87;;;;;24.20;99565.00;;;;2078598;28;20234;-55
2022/08/16 02:46:27;;;;;;;5.73;4.77;;;;;24.80;99567.00;;;;2078505;28;20233;-55
2022/08/16 02:47:28;;;;;;;5.73;5.07;;;;;24.80;99570.00;;;;2077720;28;20267;-54
2022/08/16 02:48:29;;;;;;;8.43;5.00;;;;;24.80;99568.00;;;;2078792;28;20751;-55
2022/08/16 02:49:30;;;;;;;5.15;4.72;;;;;24.80;99561.00;;;;2078541;28;20678;-54
2022/08/16 02:50:30;;;;;;;4.27;3.97;;;;;24.80;99569.00;;;;2079179;28;20244;-55
2022/08/16 02:51:30;;;;;;;4.53;4.13;;;;;24.80;99566.00;;;;2079221;28;20218;-55
2022/08/16 02:52:31;;;;;;;4.97;4.47;;;;;24.80;99580.00;;;;2079228;28;20213;-55
2022/08/16 02:53:31;;;;;;;4.93;4.50;;;;;24.80;99569.00;;;;2079052;28;20636;-55
2022/08/16 02:54:32;;;;;;;5.70;4.53;;;;;24.80;99572.00;;;;2079042;28;20583;-55
2022/08/16 02:55:32;;;;;;;5.73;4.50;;;;;24.80;99570.00;;;;2079043;28;20714;-55
2022/08/16 02:56:33;;;;;;;7.17;5.10;;;;;24.80;99569.00;;;;2079218;28;20209;-55
2022/08/16 02:57:33;;;;;;;4.97;4.20;;;;;24.80;99561.00;;;;2078260;28;20303;-55
2022/08/16 02:58:33;;;;;;;4.47;4.07;;;;;24.80;99574.00;;;;2078937;28;20694;-55
2022/08/16 02:59:34;;;;;;;5.53;4.60;;;;;24.80;99566.00;;;;2078255;28;20221;-55
2022/08/16 03:00:34;;;;;;;4.60;4.20;;;;;24.80;99564.00;;;;2078473;28;20241;-55
2022/08/16 03:01:35;;;;;;;5.33;4.83;;;;;24.80;99564.00;;;;2079048;28;20253;-55
2022/08/16 03:02:35;;;;;;;5.47;4.53;;;;;24.70;99567.00;;;;2078955;28;20213;-55
2022/08/16 03:03:37;;;;;;;5.37;4.53;;;;;24.80;99575.00;;;;2077528;28;20292;-55
2022/08/16 03:04:38;;;;;;;4.97;4.22;;;;;24.70;99565.00;;;;2067699;28;20217;-57
2022/08/16 03:05:38;;;;;;;5.28;4.68;;;;;24.70;99568.00;;;;2077672;28;20248;-55
2022/08/16 03:06:39;;;;;;;4.50;4.10;;;;;24.70;99574.00;;;;2079012;28;20225;-55
2022/08/16 03:07:39;;;;;;;5.10;4.30;;;;;24.70;99555.00;;;;2078529;28;20271;-56
2022/08/16 03:08:40;;;;;;;4.70;4.33;;;;;24.70;99565.00;;;;2087118;28;20292;-55
2022/08/16 03:09:40;;;;;;;4.70;4.30;;;;;24.70;99573.00;;;;2087039;28;20295;-55
2022/08/16 03:10:40;;;;;;;4.90;4.50;;;;;24.70;99568.00;;;;2087385;28;20213;-55
2022/08/16 03:11:41;;;;;;;5.67;4.30;;;;;24.70;99565.00;;;;2086892;28;20208;-55
2022/08/16 03:12:43;;;;;;;4.60;4.20;;;;;24.70;99571.00;;;;2087176;28;20292;-55
2022/08/16 03:13:44;;;;;;;5.80;4.53;;;;;24.70;99570.00;;;;2087207;28;20209;-55
2022/08/16 03:14:45;;;;;;;4.78;4.30;;;;;24.70;99575.00;;;;2086915;28;20450;-55
2022/08/16 03:15:45;;;;;;;4.97;4.20;;;;;24.70;99572.00;;;;2087159;28;20645;-55
2022/08/16 03:16:46;;;;;;;4.77;4.37;;;;;24.70;99569.00;;;;2078345;28;20209;-55
2022/08/16 03:17:46;;;;;;;4.83;4.43;;;;;24.70;99567.00;;;;2077430;28;20259;-55
2022/08/16 03:18:47;;;;;;;4.67;4.20;;;;;24.70;99567.00;;;;2087047;28;20219;-55
2022/08/16 03:19:48;;;;;;;4.90;4.37;;;;;24.70;99568.00;;;;2086290;28;20209;-55
2022/08/16 03:20:48;;;;;;;5.20;4.70;;;;;24.70;99575.00;;;;2086417;28;20209;-55
2022/08/16 03:21:48;;;;;;;4.57;4.10;;;;;24.70;99575.00;;;;2087043;28;20452;-55
2022/08/16 03:22:49;;;;;;;8.00;4.53;;;;;24.60;99567.00;;;;2087037;28;20659;-55
2022/08/16 03:23:49;;;;;;;6.53;4.40;;;;;24.60;99571.00;;;;2086696;28;20625;-55
2022/08/16 03:24:49;;;;;;;5.10;4.57;;;;;24.60;99572.00;;;;2087203;28;21307;-55
2022/08/16 03:25:50;;;;;;;4.40;4.00;;;;;24.60;99575.00;;;;2086866;28;20266;-55
2022/08/16 03:26:50;;;;;;;4.60;4.20;;;;;24.60;99576.00;;;;2087046;28;20589;-55
2022/08/16 03:27:52;;;;;;;5.63;4.57;;;;;24.60;99578.00;;;;2085794;28;20741;-55
2022/08/16 03:28:52;;;;;;;5.50;4.70;;;;;24.60;99568.00;;;;2087168;28;20205;-55
2022/08/16 03:29:53;;;;;;;4.27;3.87;;;;;24.60;99572.00;;;;2086008;28;20212;-55
2022/08/16 03:30:53;;;;;;;5.00;4.60;;;;;24.60;99580.00;;;;2086352;28;20204;-55
2022/08/16 03:31:53;;;;;;;7.30;4.10;;;;;24.60;99578.00;;;;2079414;28;20283;-55
2022/08/16 03:32:54;;;;;;;4.60;4.03;;;;;24.60;99571.00;;;;2078734;28;20210;-55
2022/08/16 03:33:54;;;;;;;5.13;4.70;;;;;24.60;99574.00;;;;2078780;28;20201;-56
2022/08/16 03:34:54;;;;;;;4.80;4.40;;;;;24.60;99585.00;;;;2078612;28;20837;-55
2022/08/16 03:35:58;;;;;;;4.60;4.20;;;;;24.60;99577.00;;;;2079024;28;20707;-55
2022/08/16 03:36:59;;;;;;;4.83;4.30;;;;;24.60;99577.00;;;;2083310;28;20216;-55
2022/08/16 03:38:00;;;;;;;5.60;4.30;;;;;24.50;99584.00;;;;2085316;28;20452;-55
2022/08/16 03:39:01;;;;;;;5.15;4.00;;;;;24.50;99576.00;;;;2083319;28;20209;-55
2022/08/16 03:40:02;;;;;;;5.93;4.13;;;;;24.50;99576.00;;;;2078754;28;20703;-55
2022/08/16 03:41:04;;;;;;;5.07;4.18;;;;;24.40;99574.00;;;;2078925;28;20225;-55
2022/08/16 03:42:06;;;;;;;4.80;4.40;;;;;24.50;99575.00;;;;2078967;28;20221;-55
2022/08/16 03:43:08;;;;;;;6.40;4.28;;;;;24.50;99586.00;;;;2078305;28;20275;-55
2022/08/16 03:44:08;;;;;;;4.28;3.88;;;;;24.50;99600.00;;;;2085406;28;20274;-55
2022/08/16 03:45:08;;;;;;;4.67;4.13;;;;;24.50;99583.00;;;;2086140;28;20763;-55
2022/08/16 03:46:09;;;;;;;5.87;4.43;;;;;24.50;99585.00;;;;2086387;28;20805;-56
2022/08/16 03:47:09;;;;;;;5.00;4.60;;;;;24.50;99585.00;;;;2087065;28;20209;-55
2022/08/16 03:48:10;;;;;;;4.70;4.30;;;;;24.50;99586.00;;;;2085926;28;20251;-55
2022/08/16 03:49:11;;;;;;;4.33;4.00;;;;;24.50;99589.00;;;;2086834;28;20219;-55
2022/08/16 03:50:11;;;;;;;4.60;4.20;;;;;24.50;99590.00;;;;2085893;28;20217;-55
2022/08/16 03:51:12;;;;;;;4.13;3.73;;;;;24.50;99583.00;;;;2086230;28;20900;-55
2022/08/16 03:52:12;;;;;;;5.00;4.13;;;;;24.40;99585.00;;;;2086322;28;20950;-55
2022/08/16 03:53:12;;;;;;;4.70;4.30;;;;;24.40;99561.00;;;;2086214;28;20213;-55
2022/08/16 03:54:13;;;;;;;4.90;4.07;;;;;24.40;99597.00;;;;2084469;28;20217;-55
2022/08/16 03:55:13;;;;;;;4.97;4.57;;;;;24.40;99583.00;;;;2086959;28;20221;-55
2022/08/16 03:56:13;;;;;;;4.77;4.27;;;;;24.40;99603.00;;;;2079009;28;20681;-55
2022/08/16 03:57:14;;;;;;;4.20;3.80;;;;;24.40;99590.00;;;;2077261;28;20216;-55
2022/08/16 03:58:14;;;;;;;4.50;4.10;;;;;24.40;99592.00;;;;2077297;28;20214;-55
2022/08/16 03:59:15;;;;;;;4.77;4.27;;;;;24.40;99596.00;;;;2076685;28;20213;-55
2022/08/16 04:00:18;;;;;;;5.73;4.37;;;;;24.40;99599.00;;;;2078172;28;20209;-55
2022/08/16 04:01:20;;;;;;;4.95;4.55;;;;;24.40;99589.00;;;;2078440;28;20335;-55
2022/08/16 04:02:21;;;;;;;5.72;4.80;;;;;24.40;99602.00;;;;2078116;28;20228;-55
2022/08/16 04:03:21;;;;;;;6.72;4.68;;;;;24.40;99590.00;;;;2076926;28;20205;-55
2022/08/16 04:04:22;;;;;;;5.13;4.67;;;;;24.40;99598.00;;;;2078451;28;20300;-56
2022/08/16 04:05:22;;;;;;;5.13;4.70;;;;;24.40;99591.00;;;;2078346;28;20232;-55
2022/08/16 04:06:23;;;;;;;5.10;4.60;;;;;24.40;99592.00;;;;2078676;28;20220;-55
2022/08/16 04:07:23;;;;;;;4.27;3.97;;;;;24.40;99596.00;;;;2077860;28;20209;-56
2022/08/16 04:08:23;;;;;;;4.93;4.30;;;;;24.40;99597.00;;;;2077839;28;20238;-55
2022/08/16 04:09:24;;;;;;;4.90;4.40;;;;;24.40;99646.00;;;;2077330;28;20217;-55
2022/08/16 04:10:24;;;;;;;5.43;4.10;;;;;24.40;99590.00;;;;2078456;28;20612;-56
2022/08/16 04:11:24;;;;;;;5.63;5.13;;;;;24.30;99595.00;;;;2077845;28;20772;-56
2022/08/16 04:12:25;;;;;;;5.07;4.57;;;;;24.40;99592.00;;;;2078077;28;20710;-56
2022/08/16 04:13:26;;;;;;;4.73;4.33;;;;;24.40;99604.00;;;;2078592;28;20704;-55
2022/08/16 04:14:26;;;;;;;5.07;4.35;;;;;24.40;99648.00;;;;2071360;28;20210;-56
2022/08/16 04:15:28;;;;;;;6.20;4.10;;;;;24.40;99601.00;;;;2078714;28;20710;-55
2022/08/16 04:16:30;;;;;;;5.35;4.85;;;;;24.30;99606.00;;;;2077452;28;20217;-55
2022/08/16 04:17:31;;;;;;;4.65;4.35;;;;;24.30;99603.00;;;;2076789;28;20217;-55
2022/08/16 04:18:31;;;;;;;5.13;4.53;;;;;24.30;99606.00;;;;2075689;28;20221;-55
2022/08/16 04:19:34;;;;;;;6.17;4.43;;;;;24.30;99595.00;;;;2078035;28;20877;-55
2022/08/16 04:20:34;;;;;;;5.93;4.50;;;;;24.30;99607.00;;;;2077532;28;20980;-55
2022/08/16 04:21:34;;;;;;;4.90;4.50;;;;;24.30;99603.00;;;;2077481;28;20224;-55
2022/08/16 04:22:35;;;;;;;4.57;4.17;;;;;24.30;99598.00;;;;2074698;28;20351;-55
2022/08/16 04:23:37;;;;;;;4.20;3.90;;;;;24.30;99605.00;;;;2075643;28;20268;-55
2022/08/16 04:24:38;;;;;;;4.88;4.38;;;;;24.30;99604.00;;;;2081400;28;20271;-55
2022/08/16 04:25:38;;;;;;;6.03;3.97;;;;;24.30;99604.00;;;;2086007;28;21060;-55
2022/08/16 04:26:38;;;;;;;5.03;4.53;;;;;24.30;99602.00;;;;2086563;28;20243;-55
2022/08/16 04:27:39;;;;;;;5.57;4.13;;;;;24.30;99597.00;;;;2085681;28;20220;-55
2022/08/16 04:28:39;;;;;;;6.33;4.57;;;;;24.30;99593.00;;;;2085196;28;20231;-55
2022/08/16 04:29:40;;;;;;;5.13;4.63;;;;;24.30;99595.00;;;;2085750;28;22247;-55
2022/08/16 04:30:40;;;;;;;4.50;4.10;;;;;24.30;99605.00;;;;2077241;28;20293;-55
2022/08/16 04:31:40;;;;;;;6.00;4.00;;;;;24.20;99602.00;;;;2077561;28;20949;-55
2022/08/16 04:32:41;;;;;;;7.47;4.40;;;;;24.30;99601.00;;;;2085282;28;20235;-55
2022/08/16 04:33:41;;;;;;;5.83;4.27;;;;;23.50;99602.00;;;;2085833;28;20295;-55
2022/08/16 04:34:41;;;;;;;4.57;3.90;;;;;24.30;99604.00;;;;2086573;28;20216;-55
2022/08/16 04:35:42;;;;;;;5.30;4.80;;;;;24.30;99606.00;;;;2086650;28;20585;-55
2022/08/16 04:36:42;;;;;;;4.30;4.00;;;;;24.20;99611.00;;;;2086776;28;20208;-55
2022/08/16 04:37:46;;;;;;;4.77;4.37;;;;;24.30;99587.00;;;;2083854;28;20217;-55
2022/08/16 04:38:46;;;;;;;4.20;3.90;;;;;24.30;99628.00;;;;2086138;28;20213;-55
2022/08/16 04:39:46;;;;;;;4.67;4.13;;;;;24.30;99619.00;;;;2086544;28;20587;-55
2022/08/16 04:40:47;;;;;;;5.60;4.30;;;;;24.30;99617.00;;;;2086617;28;20217;-55
2022/08/16 04:41:47;;;;;;;4.63;4.23;;;;;24.20;99620.00;;;;2086492;28;20213;-55
2022/08/16 04:42:49;;;;;;;4.70;4.30;;;;;24.20;99555.00;;;;2086754;28;20212;-55
2022/08/16 04:43:50;;;;;;;5.13;4.43;;;;;24.20;99619.00;;;;2085151;28;20221;-55
2022/08/16 04:44:50;;;;;;;4.90;4.50;;;;;24.30;99623.00;;;;2081240;28;20570;-55
2022/08/16 04:45:50;;;;;;;5.07;4.50;;;;;24.30;99617.00;;;;2077522;28;20280;-55
2022/08/16 04:46:51;;;;;;;4.40;4.00;;;;;24.30;99618.00;;;;2078362;28;20582;-55
2022/08/16 04:47:51;;;;;;;6.13;5.10;;;;;24.20;99608.00;;;;2083928;28;20216;-55
2022/08/16 04:48:52;;;;;;;6.80;4.70;;;;;24.20;99614.00;;;;2086198;28;20975;-56
2022/08/16 04:49:52;;;;;;;5.00;4.50;;;;;24.20;99618.00;;;;2077482;28;20214;-55
2022/08/16 04:50:53;;;;;;;4.80;4.37;;;;;24.20;99619.00;;;;2078232;28;20284;-56
2022/08/16 04:51:53;;;;;;;5.63;4.73;;;;;24.20;99641.00;;;;2078232;28;20625;-55
2022/08/16 04:52:53;;;;;;;4.80;4.40;;;;;24.20;99621.00;;;;2078101;28;20721;-55
2022/08/16 04:53:54;;;;;;;6.90;5.57;;;;;24.20;99622.00;;;;2077911;28;20228;-55
2022/08/16 04:54:55;;;;;;;4.90;4.47;;;;;24.20;99662.00;;;;2078141;28;20205;-61
2022/08/16 04:55:55;;;;;;;5.50;4.73;;;;;24.20;99626.00;;;;2078317;28;20696;-56
2022/08/16 04:56:55;;;;;;;4.87;4.47;;;;;24.20;99627.00;;;;2079859;28;20213;-55
2022/08/16 04:57:56;;;;;;;4.70;4.20;;;;;24.20;99630.00;;;;2079156;28;20213;-56
2022/08/16 04:58:56;;;;;;;4.33;4.03;;;;;24.20;99619.00;;;;2079289;28;20641;-56
2022/08/16 04:59:56;;;;;;;5.43;4.23;;;;;24.20;99612.00;;;;2077667;28;20423;-56
2022/08/16 05:00:57;;;;;;;4.00;3.70;;;;;24.30;99629.00;;;;2079854;28;20296;-55
2022/08/16 05:01:57;;;;;;;5.93;4.33;;;;;24.30;99632.00;;;;2079936;28;20216;-55
2022/08/16 05:02:58;;;;;;;5.60;4.37;;;;;24.30;99627.00;;;;2079402;28;20213;-55
2022/08/16 05:03:58;;;;;;;5.17;4.60;;;;;24.30;99628.00;;;;2079873;28;20210;-55
2022/08/16 05:04:58;;;;;;;7.30;4.60;;;;;24.30;99632.00;;;;2077571;28;20217;-55
2022/08/16 05:05:59;;;;;;;5.23;4.20;;;;;24.30;99623.00;;;;2079446;28;20245;-55
2022/08/16 05:06:59;;;;;;;4.50;3.90;;;;;24.20;99633.00;;;;2079949;28;20740;-55